Time;durP1;ratioP1;P1;durP2;ratioP2;P2;SDS_P1;SDS_P2;PMS_P1;PMS_P2;Temp;Humidity;BMP_temperature;BMP_pressure;BME280_temperature;BME280_humidity;BME280_pressure;Samples;Min_cycle;Max_cycle;Signal;HPM_P1;HPM_P2
2021/08/20 00:01:09;;;;;;;15.63;7.50;;;17.80;97.30;;;;;;4974552;28;20178;-87
2021/08/20 00:03:35;;;;;;;14.10;7.50;;;17.70;97.30;;;;;;5007093;28;20240;-88
2021/08/20 00:06:00;;;;;;;16.67;7.50;;;17.70;97.30;;;;;;5007618;28;20221;-87
2021/08/20 00:08:26;;;;;;;12.47;6.80;;;17.70;97.30;;;;;;5041721;23;20701;-87
2021/08/20 00:10:52;;;;;;;19.00;8.70;;;17.60;97.30;;;;;;4956100;28;20222;-86
2021/08/20 00:13:18;;;;;;;18.17;8.80;;;17.60;97.30;;;;;;4970932;28;20658;-86
2021/08/20 00:15:45;;;;;;;15.23;7.47;;;17.60;97.30;;;;;;4975865;28;20489;-87
2021/08/20 00:18:11;;;;;;;14.97;7.53;;;17.50;97.30;;;;;;4974696;28;20723;-85
2021/08/20 00:20:37;;;;;;;17.23;8.60;;;17.50;97.30;;;;;;4977806;28;20802;-87
2021/08/20 00:23:02;;;;;;;15.20;8.10;;;17.50;97.30;;;;;;4936004;29;20416;-87
2021/08/20 00:25:28;;;;;;;15.60;8.27;;;17.50;97.30;;;;;;4937072;29;20187;-86
2021/08/20 00:27:53;;;;;;;16.00;8.20;;;17.50;97.30;;;;;;4934616;29;20212;-87
2021/08/20 00:30:19;;;;;;;13.90;8.00;;;17.50;97.30;;;;;;4968283;28;20187;-86
2021/08/20 00:32:45;;;;;;;15.93;6.90;;;17.50;97.30;;;;;;4990086;28;20175;-87
2021/08/20 00:35:10;;;;;;;13.67;7.07;;;17.50;97.30;;;;;;4989977;28;20265;-86
2021/08/20 00:37:36;;;;;;;13.73;6.63;;;17.50;97.30;;;;;;4990207;28;20436;-87
2021/08/20 00:40:04;;;;;;;12.57;6.77;;;17.50;97.30;;;;;;4976166;28;20658;-87
2021/08/20 00:42:29;;;;;;;11.40;6.73;;;17.50;97.30;;;;;;4955898;28;20184;-86
2021/08/20 00:44:55;;;;;;;14.30;6.93;;;17.50;97.30;;;;;;4955893;28;20443;-86
2021/08/20 00:47:20;;;;;;;14.47;7.67;;;17.50;97.30;;;;;;4954957;28;20206;-87
2021/08/20 00:49:46;;;;;;;12.80;6.90;;;17.50;97.30;;;;;;4954442;29;20179;-87
2021/08/20 00:52:12;;;;;;;12.77;6.63;;;17.50;97.30;;;;;;4970999;28;20222;-86
2021/08/20 00:54:39;;;;;;;14.43;6.77;;;17.50;97.30;;;;;;4954389;29;20183;-87
2021/08/20 00:57:05;;;;;;;14.53;7.40;;;17.50;97.30;;;;;;4953458;28;20439;-86
2021/08/20 00:59:31;;;;;;;11.03;6.23;;;17.50;97.30;;;;;;4953349;28;20422;-87
2021/08/20 01:01:57;;;;;;;11.40;5.93;;;17.60;97.30;;;;;;4953958;29;20665;-87
2021/08/20 01:04:22;;;;;;;13.90;6.80;;;17.60;97.30;;;;;;4965731;28;20422;-87
2021/08/20 01:06:48;;;;;;;11.43;6.53;;;17.60;97.30;;;;;;4989383;28;20183;-87
2021/08/20 01:09:14;;;;;;;12.90;6.23;;;17.60;97.30;;;;;;4993940;28;20236;-87
2021/08/20 01:11:39;;;;;;;12.03;6.70;;;17.60;97.30;;;;;;4994009;28;20217;-87
2021/08/20 01:14:06;;;;;;;15.83;6.47;;;17.60;97.30;;;;;;4992323;28;20186;-87
2021/08/20 01:16:33;;;;;;;11.43;6.80;;;17.60;97.30;;;;;;4973685;28;20203;-86
2021/08/20 01:18:58;;;;;;;11.53;6.30;;;17.60;97.30;;;;;;4991392;28;20468;-86
2021/08/20 01:21:24;;;;;;;12.40;6.73;;;17.60;97.30;;;;;;4992789;28;20453;-87
2021/08/20 01:24:01;;;;;;;11.60;6.23;;;17.60;97.30;;;;;;4993850;28;20240;-87
2021/08/20 01:26:28;;;;;;;10.97;5.53;;;17.60;97.30;;;;;;4991900;28;20425;-86
2021/08/20 01:28:54;;;;;;;14.73;7.03;;;17.60;97.30;;;;;;4974842;28;20900;-87
2021/08/20 01:31:20;;;;;;;9.47;5.63;;;17.50;97.30;;;;;;4973703;28;20520;-86
2021/08/20 01:33:46;;;;;;;13.30;7.10;;;17.50;97.30;;;;;;4972738;28;20925;-87
2021/08/20 01:36:12;;;;;;;11.50;6.40;;;17.50;97.30;;;;;;4989351;28;20432;-88
2021/08/20 01:38:52;;;;;;;13.37;6.37;;;17.50;97.30;;;;;;4992936;28;20210;-87
2021/08/20 01:41:20;;;;;;;13.80;7.10;;;17.50;97.30;;;;;;4993766;28;20185;-87
2021/08/20 01:43:46;;;;;;;13.07;6.57;;;17.50;97.30;;;;;;4992399;28;20431;-86
2021/08/20 01:46:11;;;;;;;15.07;7.27;;;17.50;97.30;;;;;;4993112;28;20413;-87
2021/08/20 01:48:47;;;;;;;13.93;6.73;;;17.50;97.30;;;;;;4984555;28;20499;-86
2021/08/20 01:51:30;;;;;;;11.57;6.47;;;17.50;97.30;;;;;;4973075;28;20182;-86
2021/08/20 01:53:57;;;;;;;11.53;6.23;;;17.50;97.30;;;;;;4985532;28;20429;-86
2021/08/20 01:56:28;;;;;;;13.53;6.70;;;17.50;97.30;;;;;;5002866;28;20510;-87
2021/08/20 01:58:57;;;;;;;14.43;7.07;;;17.50;97.30;;;;;;5003103;28;20440;-86
2021/08/20 02:01:24;;;;;;;12.20;6.57;;;17.50;97.30;;;;;;5003716;28;20448;-86
2021/08/20 02:03:49;;;;;;;12.80;6.70;;;17.50;97.30;;;;;;5003761;28;20512;-86
2021/08/20 02:06:15;;;;;;;14.87;7.80;;;17.50;97.30;;;;;;4994871;28;20425;-86
2021/08/20 02:08:41;;;;;;;12.90;7.13;;;17.50;97.30;;;;;;4988220;28;20221;-86
2021/08/20 02:11:07;;;;;;;11.90;6.77;;;17.50;97.30;;;;;;4994736;28;20250;-86
2021/08/20 02:13:33;;;;;;;12.10;6.63;;;17.50;97.30;;;;;;4993102;28;20180;-86
2021/08/20 02:15:58;;;;;;;13.63;6.60;;;17.50;97.30;;;;;;4992445;28;20500;-86
2021/08/20 02:18:24;;;;;;;14.60;6.90;;;17.50;97.30;;;;;;4990576;28;20209;-86
2021/08/20 02:20:50;;;;;;;14.50;6.50;;;17.50;97.30;;;;;;4992166;28;20320;-86
2021/08/20 02:23:15;;;;;;;19.07;8.07;;;17.50;97.30;;;;;;4991663;28;20182;-85
2021/08/20 02:25:41;;;;;;;12.70;7.27;;;17.50;97.30;;;;;;4990959;28;20188;-86
2021/08/20 02:28:06;;;;;;;13.80;7.13;;;17.50;97.30;;;;;;4990809;28;20304;-86
2021/08/20 02:30:33;;;;;;;12.83;6.90;;;17.50;97.30;;;;;;4979071;28;20214;-85
2021/08/20 02:32:58;;;;;;;10.07;5.97;;;17.50;97.30;;;;;;4979381;28;20624;-86
2021/08/20 02:35:24;;;;;;;12.40;6.40;;;17.50;97.30;;;;;;4992459;28;20410;-86
2021/08/20 02:37:50;;;;;;;12.87;6.40;;;17.50;97.30;;;;;;4993929;28;20437;-86
2021/08/20 02:40:16;;;;;;;16.93;6.70;;;17.50;97.30;;;;;;4993024;28;20189;-86
2021/08/20 02:42:41;;;;;;;13.13;6.30;;;17.50;97.30;;;;;;4992003;28;20428;-86
2021/08/20 02:45:08;;;;;;;12.07;6.77;;;17.40;97.30;;;;;;4990961;28;20562;-86
2021/08/20 02:47:33;;;;;;;13.53;6.70;;;17.40;97.30;;;;;;4990611;28;20213;-86
2021/08/20 02:49:59;;;;;;;16.90;8.23;;;17.40;97.30;;;;;;4972374;28;20434;-86
2021/08/20 02:52:24;;;;;;;11.67;6.63;;;17.40;97.30;;;;;;4972878;28;20237;-86
2021/08/20 02:54:50;;;;;;;17.10;6.23;;;17.40;97.30;;;;;;4976986;28;20210;-86
2021/08/20 02:57:15;;;;;;;12.00;6.57;;;17.40;97.30;;;;;;4974986;28;20202;-86
2021/08/20 02:59:41;;;;;;;12.03;5.93;;;17.40;97.30;;;;;;4974960;28;20227;-86
2021/08/20 03:02:07;;;;;;;11.03;6.33;;;17.40;97.30;;;;;;4975078;28;20171;-86
2021/08/20 03:04:32;;;;;;;12.37;7.00;;;17.40;97.30;;;;;;4975548;28;20556;-86
2021/08/20 03:06:58;;;;;;;8.30;5.27;;;17.40;97.30;;;;;;4991900;28;20235;-86
2021/08/20 03:09:23;;;;;;;12.27;6.60;;;17.40;97.30;;;;;;4995858;28;20182;-86
2021/08/20 03:11:49;;;;;;;12.13;6.23;;;17.40;97.30;;;;;;4995966;28;20277;-85
2021/08/20 03:14:16;;;;;;;13.37;6.97;;;17.40;97.30;;;;;;4994763;28;20174;-86
2021/08/20 03:16:41;;;;;;;15.40;6.67;;;17.40;97.30;;;;;;4995069;28;20174;-86
2021/08/20 03:19:08;;;;;;;11.80;6.10;;;17.40;97.30;;;;;;4978941;28;20425;-86
2021/08/20 03:21:33;;;;;;;10.57;6.27;;;17.40;97.30;;;;;;4974783;28;20217;-86
2021/08/20 03:23:59;;;;;;;11.13;5.83;;;17.40;97.30;;;;;;4974490;28;20450;-86
2021/08/20 03:26:24;;;;;;;13.37;6.20;;;17.40;97.30;;;;;;4974627;28;20186;-86
2021/08/20 03:28:51;;;;;;;12.27;5.53;;;17.40;97.30;;;;;;4974639;28;20224;-86
2021/08/20 03:31:17;;;;;;;12.47;6.73;;;17.40;97.30;;;;;;4987375;28;20537;-86
2021/08/20 03:33:43;;;;;;;9.07;6.17;;;17.40;97.30;;;;;;4979047;28;20422;-86
2021/08/20 03:36:08;;;;;;;9.60;5.83;;;17.40;97.30;;;;;;4975918;28;20422;-86
2021/08/20 03:38:34;;;;;;;13.90;5.70;;;17.40;97.30;;;;;;4976015;28;20209;-86
2021/08/20 03:40:59;;;;;;;10.87;5.80;;;17.40;97.30;;;;;;4975450;28;20210;-86
2021/08/20 03:43:25;;;;;;;10.37;5.60;;;17.30;97.30;;;;;;4974716;28;20572;-86
2021/08/20 03:45:51;;;;;;;12.00;6.33;;;17.30;97.30;;;;;;4974629;28;20186;-86
2021/08/20 03:48:16;;;;;;;10.23;6.07;;;17.30;97.30;;;;;;4974976;28;20211;-86
2021/08/20 03:50:41;;;;;;;11.10;5.80;;;17.30;97.30;;;;;;4973941;28;20183;-86
2021/08/20 03:53:07;;;;;;;10.67;5.93;;;17.30;97.30;;;;;;4975148;28;20183;-86
2021/08/20 03:55:32;;;;;;;9.30;5.67;;;17.30;97.30;;;;;;4989501;28;20289;-86
2021/08/20 03:57:58;;;;;;;14.43;6.37;;;17.30;97.30;;;;;;4983752;28;20267;-86
2021/08/20 04:00:23;;;;;;;10.13;6.10;;;17.40;97.30;;;;;;4990822;28;20547;-86
2021/08/20 04:02:49;;;;;;;10.50;6.40;;;17.40;97.30;;;;;;4993719;28;20209;-86
2021/08/20 04:05:14;;;;;;;11.30;6.53;;;17.40;97.30;;;;;;4994842;28;20178;-86
2021/08/20 04:07:40;;;;;;;11.53;6.17;;;17.40;97.30;;;;;;4994661;28;20724;-86
2021/08/20 04:10:06;;;;;;;11.17;6.13;;;17.40;97.30;;;;;;4983225;28;20581;-86
2021/08/20 04:12:32;;;;;;;14.60;5.73;;;17.40;97.30;;;;;;4974658;28;20645;-86
2021/08/20 04:14:57;;;;;;;10.33;5.97;;;17.30;97.30;;;;;;4974270;28;20429;-85
2021/08/20 04:17:23;;;;;;;10.50;6.00;;;17.40;97.30;;;;;;4974196;28;20206;-86
2021/08/20 04:19:48;;;;;;;11.53;5.60;;;17.40;97.30;;;;;;4974059;28;20260;-86
2021/08/20 04:22:14;;;;;;;9.10;5.30;;;17.30;97.30;;;;;;4973519;28;20261;-86
2021/08/20 04:24:41;;;;;;;9.73;5.80;;;17.30;97.30;;;;;;4988097;28;20181;-86
2021/08/20 04:27:07;;;;;;;9.37;5.17;;;17.30;97.30;;;;;;4993116;28;20198;-86
2021/08/20 04:29:33;;;;;;;12.63;5.07;;;17.30;97.30;;;;;;4993428;28;20409;-86
2021/08/20 04:31:59;;;;;;;8.93;5.13;;;17.30;97.30;;;;;;4994541;28;20443;-86
2021/08/20 04:34:24;;;;;;;11.73;5.10;;;17.30;97.30;;;;;;4992805;28;20257;-86
2021/08/20 04:36:50;;;;;;;9.13;4.83;;;17.30;97.30;;;;;;4995078;28;20185;-86
2021/08/20 04:39:15;;;;;;;9.00;5.80;;;17.30;97.30;;;;;;4996005;28;20189;-86
2021/08/20 04:41:41;;;;;;;7.30;4.70;;;17.30;97.30;;;;;;4994088;28;20186;-86
2021/08/20 04:44:07;;;;;;;7.57;4.80;;;17.30;97.30;;;;;;4990833;28;20680;-86
2021/08/20 04:46:32;;;;;;;12.97;5.70;;;17.30;97.30;;;;;;4989978;28;20177;-86
2021/08/20 04:48:58;;;;;;;9.13;4.57;;;17.30;97.30;;;;;;4981959;28;20289;-87
2021/08/20 04:51:23;;;;;;;8.23;4.50;;;17.30;97.30;;;;;;4973767;28;20187;-87
2021/08/20 04:53:50;;;;;;;7.07;4.30;;;17.30;97.30;;;;;;4975365;28;20179;-87
2021/08/20 04:56:16;;;;;;;8.10;4.30;;;17.30;97.30;;;;;;4994059;28;20204;-87
2021/08/20 04:58:42;;;;;;;8.70;4.43;;;17.30;97.30;;;;;;4992997;28;20464;-87
2021/08/20 05:01:07;;;;;;;6.30;4.40;;;17.30;97.30;;;;;;4985121;28;20186;-87
2021/08/20 05:03:34;;;;;;;9.37;4.23;;;17.30;97.30;;;;;;4975223;28;20666;-86
2021/08/20 05:05:59;;;;;;;7.53;3.90;;;17.30;97.30;;;;;;4975340;28;20237;-87
2021/08/20 05:08:25;;;;;;;8.83;3.93;;;17.40;97.30;;;;;;4974994;28;20486;-86
2021/08/20 05:11:14;;;;;;;5.77;3.90;;;17.40;97.30;;;;;;4973641;28;20517;-87
2021/08/20 05:13:40;;;;;;;6.53;3.60;;;17.40;97.30;;;;;;4980593;28;20467;-87
2021/08/20 05:16:05;;;;;;;8.10;4.50;;;17.40;97.30;;;;;;4993670;28;20672;-87
2021/08/20 05:18:31;;;;;;;7.40;4.10;;;17.50;97.30;;;;;;4993439;28;20202;-87
2021/08/20 05:20:56;;;;;;;6.80;4.13;;;17.50;97.30;;;;;;4993048;28;20652;-82
2021/08/20 05:23:22;;;;;;;8.03;4.13;;;17.50;97.30;;;;;;4993144;28;20189;-86
2021/08/20 05:25:47;;;;;;;6.57;4.10;;;17.50;97.30;;;;;;4993376;28;20731;-86
2021/08/20 05:28:13;;;;;;;6.10;4.00;;;17.50;97.30;;;;;;4979758;28;20208;-87
2021/08/20 05:30:39;;;;;;;8.13;4.50;;;17.60;97.30;;;;;;4972720;28;20174;-86
2021/08/20 05:33:05;;;;;;;7.90;4.93;;;17.60;97.30;;;;;;4972745;28;20237;-86
2021/08/20 05:35:30;;;;;;;8.43;5.30;;;17.60;97.30;;;;;;4974252;28;20414;-86
2021/08/20 05:37:56;;;;;;;8.97;4.30;;;17.60;97.30;;;;;;4982877;28;20205;-86
2021/08/20 05:40:21;;;;;;;7.10;4.23;;;17.60;97.30;;;;;;4994381;28;20192;-86
2021/08/20 05:42:47;;;;;;;6.80;4.50;;;17.60;97.30;;;;;;4993311;28;20268;-86
2021/08/20 05:45:13;;;;;;;5.93;4.10;;;17.60;97.30;;;;;;4993563;28;20181;-87
2021/08/20 05:47:39;;;;;;;7.80;4.40;;;17.60;97.30;;;;;;4990832;28;20264;-86
2021/08/20 05:50:06;;;;;;;8.67;4.20;;;17.60;97.30;;;;;;4984299;28;20178;-86
2021/08/20 05:52:34;;;;;;;9.33;4.00;;;17.60;97.30;;;;;;4992641;28;20418;-86
2021/08/20 05:54:59;;;;;;;8.00;4.30;;;17.60;97.30;;;;;;4995702;28;20488;-87
2021/08/20 05:57:25;;;;;;;10.87;4.47;;;17.60;97.30;;;;;;4997454;28;20513;-87
2021/08/20 05:59:51;;;;;;;7.27;4.27;;;17.60;97.30;;;;;;4973018;28;20197;-86
2021/08/20 06:02:16;;;;;;;7.10;4.40;;;17.60;97.30;;;;;;4972105;28;20182;-86
2021/08/20 06:04:42;;;;;;;7.93;4.50;;;17.60;97.30;;;;;;4983274;28;20177;-86
2021/08/20 06:07:08;;;;;;;8.33;4.80;;;17.70;97.30;;;;;;4992771;28;20210;-86
2021/08/20 06:12:01;;;;;;;5.63;3.77;;;17.70;97.30;;;;;;4990247;28;20221;-74
2021/08/20 06:14:27;;;;;;;6.80;4.73;;;17.70;97.30;;;;;;4973778;28;20416;-74
2021/08/20 06:16:54;;;;;;;9.63;4.13;;;17.70;97.30;;;;;;4991434;28;20180;-74
2021/08/20 06:19:25;;;;;;;8.90;4.70;;;17.70;97.30;;;;;;4974074;28;20624;-73
2021/08/20 06:21:51;;;;;;;7.33;3.77;;;17.70;97.30;;;;;;4971837;28;20413;-74
2021/08/20 06:24:17;;;;;;;7.77;5.30;;;17.70;97.30;;;;;;4970808;28;20808;-73
2021/08/20 06:26:46;;;;;;;7.20;4.70;;;17.80;97.30;;;;;;4972686;28;20421;-73
2021/08/20 06:29:15;;;;;;;9.80;4.80;;;17.80;97.30;;;;;;4975990;28;20504;-73
2021/08/20 06:31:41;;;;;;;7.93;4.43;;;17.80;97.30;;;;;;4980219;28;20414;-74
2021/08/20 06:34:06;;;;;;;8.80;5.37;;;17.90;97.30;;;;;;5006377;28;20430;-73
2021/08/20 06:36:32;;;;;;;6.70;4.40;;;17.90;97.30;;;;;;4995585;28;20192;-73
2021/08/20 06:38:58;;;;;;;11.63;4.30;;;18.00;97.30;;;;;;4977877;28;20201;-73
2021/08/20 06:41:23;;;;;;;8.33;4.97;;;18.00;97.30;;;;;;4995119;28;20396;-73
2021/08/20 06:43:49;;;;;;;8.17;5.17;;;18.10;97.30;;;;;;4997081;28;20339;-74
2021/08/20 06:46:14;;;;;;;8.17;4.83;;;18.10;97.30;;;;;;4994673;28;20277;-73
2021/08/20 06:48:40;;;;;;;8.97;5.03;;;18.20;97.30;;;;;;4995061;28;20237;-73
2021/08/20 06:51:05;;;;;;;10.00;4.63;;;18.10;97.30;;;;;;4993756;28;20186;-74
2021/08/20 06:53:31;;;;;;;8.13;4.47;;;18.10;97.30;;;;;;4994157;28;20201;-74
2021/08/20 06:55:56;;;;;;;10.40;4.87;;;18.20;97.30;;;;;;4995148;28;20722;-74
2021/08/20 06:58:22;;;;;;;11.53;5.60;;;18.20;97.30;;;;;;4977644;28;20201;-74
2021/08/20 07:00:48;;;;;;;7.03;4.63;;;18.20;97.30;;;;;;4977537;28;20174;-74
2021/08/20 07:03:16;;;;;;;8.03;4.30;;;18.30;97.30;;;;;;4991562;28;20550;-73
2021/08/20 07:05:41;;;;;;;9.47;4.90;;;18.30;97.30;;;;;;4995706;28;20243;-74
2021/08/20 07:08:07;;;;;;;9.60;4.60;;;18.40;97.30;;;;;;5014301;28;20463;-74
2021/08/20 07:10:33;;;;;;;10.63;4.70;;;18.50;97.30;;;;;;4979838;28;20213;-73
2021/08/20 07:12:58;;;;;;;9.33;5.23;;;18.50;97.30;;;;;;4995028;28;20201;-74
2021/08/20 07:15:24;;;;;;;9.80;5.70;;;18.60;97.30;;;;;;4995122;28;20209;-73
2021/08/20 07:17:49;;;;;;;8.50;5.00;;;18.60;97.30;;;;;;4977155;28;20178;-74
2021/08/20 07:20:15;;;;;;;13.07;6.40;;;18.60;97.30;;;;;;4977563;28;20867;-74
2021/08/20 07:22:40;;;;;;;9.50;5.43;;;18.70;97.30;;;;;;4976909;28;20202;-73
2021/08/20 07:25:06;;;;;;;12.03;4.70;;;18.70;97.30;;;;;;4976925;28;20252;-74
2021/08/20 07:27:32;;;;;;;9.30;5.40;;;18.70;97.30;;;;;;4977174;28;20213;-74
2021/08/20 07:29:58;;;;;;;8.27;5.20;;;18.80;97.30;;;;;;4976788;28;20433;-73
2021/08/20 07:32:23;;;;;;;10.13;6.23;;;18.80;97.30;;;;;;5007343;28;20188;-74
2021/08/20 07:34:49;;;;;;;9.90;5.23;;;18.90;97.30;;;;;;4996291;28;20638;-74
2021/08/20 07:37:15;;;;;;;11.37;5.70;;;19.00;97.30;;;;;;5013610;28;20170;-73
2021/08/20 07:39:40;;;;;;;9.33;5.70;;;19.10;97.30;;;;;;5013256;28;20724;-73
2021/08/20 07:42:06;;;;;;;13.23;6.67;;;19.20;97.30;;;;;;4996094;28;20588;-73
2021/08/20 07:44:33;;;;;;;13.07;6.07;;;19.30;97.30;;;;;;4983274;28;20552;-74
2021/08/20 07:46:59;;;;;;;11.57;5.93;;;19.40;97.30;;;;;;4986237;28;20421;-74
2021/08/20 07:49:25;;;;;;;14.10;7.20;;;19.40;97.30;;;;;;4993730;28;20465;-74
2021/08/20 07:51:50;;;;;;;12.67;6.17;;;19.40;97.30;;;;;;4977434;28;20417;-73
2021/08/20 07:54:16;;;;;;;10.50;5.93;;;19.40;97.30;;;;;;4976892;28;20228;-73
2021/08/20 07:56:42;;;;;;;9.77;6.53;;;19.40;97.30;;;;;;4994147;28;20201;-74
2021/08/20 07:59:07;;;;;;;12.37;6.20;;;19.50;97.30;;;;;;4993890;28;20204;-74
2021/08/20 08:01:33;;;;;;;11.50;6.60;;;19.60;97.30;;;;;;4994234;28;20261;-74
2021/08/20 08:03:58;;;;;;;13.07;6.33;;;19.70;97.30;;;;;;4976812;28;20178;-74
2021/08/20 08:06:25;;;;;;;15.80;4.87;;;19.70;97.30;;;;;;4976862;28;20174;-74
2021/08/20 08:08:51;;;;;;;13.30;6.47;;;19.70;97.30;;;;;;4993081;28;20205;-73
2021/08/20 08:11:16;;;;;;;9.43;5.93;;;19.70;97.30;;;;;;4993034;28;20870;-74
2021/08/20 08:13:42;;;;;;;10.20;5.00;;;19.80;97.30;;;;;;4991024;28;20584;-74
2021/08/20 08:16:08;;;;;;;10.37;5.30;;;19.80;97.30;;;;;;4987944;28;20332;-74
2021/08/20 08:18:33;;;;;;;11.50;5.33;;;19.80;97.30;;;;;;4993053;28;20216;-74
2021/08/20 08:20:59;;;;;;;10.43;4.93;;;19.80;97.30;;;;;;4983533;28;20184;-73
2021/08/20 08:23:25;;;;;;;10.63;5.93;;;19.80;97.30;;;;;;4982066;28;20631;-73
2021/08/20 08:25:51;;;;;;;13.83;5.50;;;19.80;97.30;;;;;;4980884;28;20584;-73
2021/08/20 08:28:16;;;;;;;13.97;6.23;;;19.80;97.30;;;;;;4983152;28;20260;-73
2021/08/20 08:30:42;;;;;;;12.77;6.23;;;19.80;97.30;;;;;;4976945;28;20525;-74
2021/08/20 08:33:09;;;;;;;11.07;5.43;;;19.80;97.30;;;;;;4975876;28;20209;-75
2021/08/20 08:35:35;;;;;;;10.23;5.00;;;19.80;97.30;;;;;;4975738;28;20853;-74
2021/08/20 08:38:12;;;;;;;9.37;4.83;;;19.80;97.30;;;;;;4975550;28;20468;-73
2021/08/20 08:40:41;;;;;;;11.93;5.20;;;19.70;97.30;;;;;;4985662;28;20185;-74
2021/08/20 08:43:08;;;;;;;7.10;4.90;;;19.60;97.30;;;;;;4994881;28;20412;-74
2021/08/20 08:45:35;;;;;;;13.20;6.67;;;19.60;97.30;;;;;;4994094;28;20425;-74
2021/08/20 08:48:07;;;;;;;20.60;7.60;;;19.60;97.30;;;;;;5005312;28;20457;-74
2021/08/20 08:50:33;;;;;;;10.13;5.33;;;19.50;97.30;;;;;;4991101;28;20421;-74
2021/08/20 08:52:59;;;;;;;9.80;5.27;;;19.50;97.30;;;;;;4978747;28;21041;-76
2021/08/20 08:55:25;;;;;;;8.40;5.60;;;19.50;97.30;;;;;;4991897;28;20412;-74
2021/08/20 08:57:51;;;;;;;8.53;5.00;;;19.50;97.30;;;;;;4983614;28;20832;-73
2021/08/20 09:00:38;;;;;;;8.57;5.40;;;19.50;97.30;;;;;;5009308;28;20441;-74
2021/08/20 09:03:04;;;;;;;11.33;5.47;;;19.50;97.30;;;;;;4996279;28;20651;-74
2021/08/20 09:05:44;;;;;;;13.63;5.80;;;19.40;97.30;;;;;;4973848;28;20440;-73
2021/08/20 09:08:12;;;;;;;10.10;5.30;;;19.40;97.30;;;;;;4981606;28;21014;-73
2021/08/20 09:10:49;;;;;;;8.10;5.20;;;19.40;97.30;;;;;;4974642;28;20461;-74
2021/08/20 09:13:15;;;;;;;9.33;5.10;;;19.40;97.30;;;;;;4974978;28;20443;-74
2021/08/20 09:15:41;;;;;;;7.23;4.60;;;19.50;97.30;;;;;;4975314;28;20409;-73
2021/08/20 09:18:06;;;;;;;7.93;4.80;;;19.60;97.30;;;;;;4992172;28;20201;-74
2021/08/20 09:20:34;;;;;;;6.77;4.83;;;19.80;97.30;;;;;;4973051;28;20170;-74
2021/08/20 09:23:02;;;;;;;8.97;4.90;;;20.00;97.30;;;;;;4973198;28;20503;-74
2021/08/20 09:25:28;;;;;;;9.20;4.67;;;20.20;97.30;;;;;;4972676;28;20434;-73
2021/08/20 09:28:08;;;;;;;8.83;5.20;;;20.50;97.30;;;;;;4972542;28;20450;-74
2021/08/20 09:30:34;;;;;;;8.27;5.27;;;20.70;97.30;;;;;;4976633;28;20421;-73
2021/08/20 09:32:59;;;;;;;8.07;4.90;;;20.80;97.30;;;;;;4992734;28;20409;-74
2021/08/20 09:35:34;;;;;;;6.13;4.40;;;20.90;97.30;;;;;;4974608;28;20174;-73
2021/08/20 09:38:10;;;;;;;10.03;4.90;;;21.00;97.30;;;;;;4991933;28;20197;-73
2021/08/20 09:40:36;;;;;;;6.40;4.30;;;21.00;97.00;;;;;;4974315;28;20413;-73
2021/08/20 09:43:18;;;;;;;9.03;4.60;;;20.90;97.30;;;;;;4975667;28;20428;-74
2021/08/20 09:46:06;;;;;;;8.50;4.90;;;20.90;96.70;;;;;;4992383;28;20232;-73
2021/08/20 09:48:40;;;;;;;6.80;3.87;;;20.80;97.30;;;;;;4974604;28;20456;-73
2021/08/20 09:51:06;;;;;;;6.33;4.07;;;20.70;96.80;;;;;;4993610;28;20423;-74
2021/08/20 09:53:32;;;;;;;7.27;4.30;;;20.70;97.10;;;;;;5011431;28;20766;-73
2021/08/20 09:56:02;;;;;;;5.97;4.07;;;20.70;96.30;;;;;;4982674;28;20170;-73
2021/08/20 09:58:31;;;;;;;6.70;4.50;;;20.70;96.90;;;;;;4991384;28;20228;-74
2021/08/20 10:00:59;;;;;;;6.77;4.67;;;20.70;96.40;;;;;;4991486;28;20413;-72
2021/08/20 10:03:25;;;;;;;6.30;4.27;;;20.60;96.80;;;;;;4991724;28;20445;-74
2021/08/20 10:05:52;;;;;;;11.30;5.30;;;20.60;96.90;;;;;;4973199;28;20456;-74
2021/08/20 10:08:19;;;;;;;8.07;4.63;;;20.60;96.40;;;;;;4991649;28;20205;-74
2021/08/20 10:10:45;;;;;;;6.00;4.27;;;20.60;96.60;;;;;;4991363;28;20453;-73
2021/08/20 10:13:15;;;;;;;7.43;4.90;;;20.70;97.00;;;;;;4974212;28;20445;-73
2021/08/20 10:15:41;;;;;;;6.80;4.90;;;20.70;96.00;;;;;;4992143;28;20425;-74
2021/08/20 10:18:07;;;;;;;7.83;4.40;;;20.70;96.20;;;;;;4973812;28;20445;-73
2021/08/20 10:20:35;;;;;;;6.73;4.20;;;20.70;96.00;;;;;;4991461;28;20965;-73
2021/08/20 10:23:02;;;;;;;5.50;3.87;;;20.70;96.00;;;;;;4974013;28;20209;-74
2021/08/20 10:25:29;;;;;;;5.00;4.00;;;20.70;96.50;;;;;;4974413;28;20425;-74
2021/08/20 10:27:56;;;;;;;5.80;3.70;;;20.80;96.20;;;;;;4991701;28;20836;-74
2021/08/20 10:30:21;;;;;;;6.30;3.70;;;20.80;95.30;;;;;;4974010;28;20440;-73
2021/08/20 10:33:04;;;;;;;6.97;4.00;;;20.90;96.60;;;;;;4973799;28;20421;-73
2021/08/20 10:35:48;;;;;;;8.20;4.60;;;21.00;96.80;;;;;;4982978;28;20554;-73
2021/08/20 10:38:38;;;;;;;9.40;4.70;;;21.00;96.30;;;;;;4980610;28;20475;-73
2021/08/20 10:41:12;;;;;;;7.80;4.87;;;21.10;96.60;;;;;;4991137;28;20459;-74
2021/08/20 10:43:51;;;;;;;7.70;5.00;;;21.10;94.90;;;;;;4974024;28;20420;-73
2021/08/20 10:46:35;;;;;;;8.37;4.27;;;21.00;95.50;;;;;;4973873;28;20942;-74
2021/08/20 10:49:14;;;;;;;7.40;4.70;;;20.90;95.50;;;;;;4991831;28;20472;-73
2021/08/20 10:51:52;;;;;;;6.47;4.43;;;20.90;95.30;;;;;;5006039;28;20469;-73
2021/08/20 10:54:40;;;;;;;6.73;4.63;;;20.90;95.10;;;;;;5010578;28;20404;-74
2021/08/20 10:57:35;;;;;;;8.00;4.50;;;20.90;95.00;;;;;;4992887;28;20505;-73
2021/08/20 11:00:08;;;;;;;10.00;4.20;;;20.90;95.20;;;;;;4982181;28;20984;-73
2021/08/20 11:02:47;;;;;;;9.00;4.47;;;20.90;94.30;;;;;;4974360;28;20433;-74
2021/08/20 11:05:16;;;;;;;7.47;4.33;;;20.90;95.00;;;;;;4991079;28;20491;-73
2021/08/20 11:07:45;;;;;;;6.27;3.97;;;20.90;95.30;;;;;;4990942;28;20696;-73
2021/08/20 11:10:11;;;;;;;6.33;4.07;;;21.00;94.50;;;;;;4973121;28;20460;-73
2021/08/20 11:12:52;;;;;;;6.13;3.70;;;21.00;95.50;;;;;;4995682;28;20926;-73
2021/08/20 11:15:18;;;;;;;7.10;4.90;;;21.20;96.60;;;;;;4996516;28;20239;-74
2021/08/20 11:17:51;;;;;;;6.37;4.10;;;21.30;95.40;;;;;;4994366;28;21005;-73
2021/08/20 11:20:22;;;;;;;8.17;4.83;;;21.50;95.40;;;;;;5013635;28;20184;-74
2021/08/20 11:23:12;;;;;;;7.67;4.43;;;21.70;93.60;;;;;;4994574;28;20910;-73
2021/08/20 11:25:48;;;;;;;10.23;5.30;;;21.90;93.40;;;;;;4991869;28;20429;-73
2021/08/20 11:28:27;;;;;;;6.60;4.63;;;22.10;92.10;;;;;;4994298;28;21414;-74
2021/08/20 11:31:03;;;;;;;7.07;4.10;;;22.20;93.50;;;;;;4988821;28;20942;-73
2021/08/20 11:33:38;;;;;;;6.60;4.70;;;22.40;93.20;;;;;;4992079;28;20413;-73
2021/08/20 11:36:30;;;;;;;6.97;4.93;;;22.50;92.50;;;;;;4994260;28;20440;-72
2021/08/20 11:38:57;;;;;;;6.03;4.00;;;22.40;92.40;;;;;;4972942;28;20451;-73
2021/08/20 11:41:37;;;;;;;8.43;4.57;;;22.40;91.60;;;;;;4976422;28;20417;-72
2021/08/20 11:44:07;;;;;;;6.50;4.93;;;22.30;89.90;;;;;;4993670;28;20413;-73
2021/08/20 11:46:42;;;;;;;5.73;3.87;;;22.20;90.10;;;;;;4977645;28;20827;-74
2021/08/20 11:49:10;;;;;;;7.57;5.17;;;22.00;89.80;;;;;;4993589;28;20456;-73
2021/08/20 11:51:41;;;;;;;6.00;4.20;;;22.00;90.50;;;;;;4980635;28;20508;-73
2021/08/20 11:54:09;;;;;;;7.00;5.03;;;21.90;90.20;;;;;;4989815;28;20413;-73
2021/08/20 11:56:36;;;;;;;15.20;4.60;;;21.70;90.20;;;;;;4984206;28;20432;-73
2021/08/20 11:59:09;;;;;;;5.90;3.77;;;21.70;91.10;;;;;;4993657;28;20432;-73
2021/08/20 12:01:37;;;;;;;7.83;4.67;;;21.70;91.30;;;;;;4971962;28;20425;-74
2021/08/20 12:04:04;;;;;;;10.87;4.53;;;21.80;91.00;;;;;;4984774;28;20516;-73
2021/08/20 12:06:31;;;;;;;6.70;4.27;;;21.90;91.70;;;;;;4975645;28;20946;-74
2021/08/20 12:09:14;;;;;;;6.20;4.50;;;22.00;90.50;;;;;;4990798;28;20488;-73
2021/08/20 12:11:45;;;;;;;5.40;4.00;;;22.20;89.80;;;;;;4972129;28;20468;-73
2021/08/20 12:14:22;;;;;;;7.90;4.53;;;22.50;88.70;;;;;;4976090;28;20873;-74
2021/08/20 12:16:49;;;;;;;7.00;4.80;;;22.70;88.40;;;;;;4990424;28;20426;-73
2021/08/20 12:19:15;;;;;;;5.93;4.17;;;22.90;88.80;;;;;;4973475;28;20452;-74
2021/08/20 12:21:44;;;;;;;8.97;5.03;;;23.00;88.80;;;;;;4973831;28;21012;-74
2021/08/20 12:24:10;;;;;;;7.67;4.77;;;23.10;88.50;;;;;;4966652;28;20233;-73
2021/08/20 12:26:36;;;;;;;6.90;4.43;;;23.00;88.30;;;;;;4980788;28;20432;-73
2021/08/20 12:29:15;;;;;;;10.43;4.50;;;22.90;88.80;;;;;;4995117;28;20534;-73
2021/08/20 12:31:57;;;;;;;6.93;4.77;;;22.70;89.10;;;;;;4963017;28;20185;-73
2021/08/20 12:34:28;;;;;;;8.87;5.13;;;22.60;89.60;;;;;;4976372;28;20421;-73
2021/08/20 12:36:56;;;;;;;7.93;4.70;;;22.60;89.20;;;;;;4992175;28;20453;-73
2021/08/20 12:39:36;;;;;;;10.40;5.03;;;22.60;89.10;;;;;;4992784;28;20464;-74
2021/08/20 12:42:24;;;;;;;6.53;4.73;;;22.70;90.60;;;;;;4987952;28;20484;-73
2021/08/20 12:45:19;;;;;;;7.47;4.30;;;22.80;90.20;;;;;;4982346;28;20940;-73
2021/08/20 12:48:06;;;;;;;8.57;4.87;;;22.70;89.60;;;;;;4981310;28;20460;-73
2021/08/20 12:50:36;;;;;;;8.30;5.43;;;22.60;89.20;;;;;;4990782;28;20428;-73